Time;durP1;ratioP1;P1;durP2;ratioP2;P2;SDS_P1;SDS_P2;PMS_P1;PMS_P2;Temp;Humidity;BMP_temperature;BMP_pressure;BME280_temperature;BME280_humidity;BME280_pressure;Samples;Min_cycle;Max_cycle;Signal;HPM_P1;HPM_P2
2023/03/12 00:01:21;;;;;;;;;0.00;0.00;;;;;15.50;82.30;100662.00;5005333;28;45601;-73
2023/03/12 00:03:48;;;;;;;;;0.00;0.00;;;;;15.51;83.03;100661.13;4999414;28;45412;-73
2023/03/12 00:06:14;;;;;;;;;0.00;0.00;;;;;15.43;82.17;100647.00;5001767;28;45399;-76
2023/03/12 00:08:40;;;;;;;;;0.00;0.00;;;;;15.50;82.46;100656.75;5002801;28;46066;-73
2023/03/12 00:11:11;;;;;;;;;3.00;3.00;;;;;15.43;82.86;100648.75;4999864;28;45328;-74
2023/03/12 00:13:38;;;;;;;;;0.67;0.67;;;;;15.48;82.34;100655.84;4987869;28;45415;-75
2023/03/12 00:16:08;;;;;;;;;0.00;0.00;;;;;15.51;82.16;100658.50;5003851;28;45496;-76
2023/03/12 00:18:34;;;;;;;;;1.00;1.00;;;;;15.49;82.28;100660.22;4997633;28;45573;-77
2023/03/12 00:21:00;;;;;;;;;0.00;0.00;;;;;15.48;82.67;100663.75;5002825;28;45447;-77
2023/03/12 00:23:25;;;;;;;;;2.00;2.00;;;;;15.45;82.70;100663.69;5005382;28;45570;-77
2023/03/12 00:25:51;;;;;;;;;0.00;0.00;;;;;15.45;82.78;100668.09;5002929;28;45605;-76
2023/03/12 00:28:16;;;;;;;;;0.00;0.00;;;;;15.35;83.31;100646.03;5005037;28;45652;-76
2023/03/12 00:30:42;;;;;;;;;0.67;0.00;;;;;15.36;83.42;100657.44;5003344;28;45459;-76
2023/03/12 00:33:09;;;;;;;;;0.00;0.00;;;;;15.40;83.03;100669.75;5005317;28;45367;-76
2023/03/12 00:35:37;;;;;;;;;0.00;0.00;;;;;15.35;83.42;100672.34;5004864;28;45317;-77
2023/03/12 00:38:03;;;;;;;;;0.00;0.00;;;;;15.36;83.60;100670.59;4996458;28;46020;-76
2023/03/12 00:40:29;;;;;;;;;0.00;0.00;;;;;15.37;83.41;100660.09;4996456;28;45517;-77
2023/03/12 00:42:54;;;;;;;;;0.67;0.67;;;;;15.40;82.62;100664.50;5000988;28;45439;-76
2023/03/12 00:45:20;;;;;;;;;0.00;0.00;;;;;15.38;83.08;100663.59;5006870;28;45479;-76
2023/03/12 00:47:45;;;;;;;;;0.00;0.00;;;;;15.40;82.74;100664.50;5007596;28;46006;-73
2023/03/12 00:50:11;;;;;;;;;0.33;0.00;;;;;15.42;83.31;100681.19;5000190;28;45443;-74
2023/03/12 00:52:37;;;;;;;;;0.00;0.00;;;;;15.40;83.13;100680.28;5006242;28;45505;-74
2023/03/12 00:55:02;;;;;;;;;0.00;0.00;;;;;15.36;82.92;100673.22;5008794;28;45518;-74
2023/03/12 00:57:28;;;;;;;;;0.00;0.00;;;;;15.35;83.26;100674.09;5006881;28;45535;-74
2023/03/12 00:59:54;;;;;;;;;0.00;0.00;;;;;15.37;83.59;100682.91;5007322;28;45426;-73
2023/03/12 01:02:20;;;;;;;;;2.00;2.00;;;;;15.36;83.53;100678.50;5008478;28;45403;-77
2023/03/12 01:04:45;;;;;;;;;1.00;0.67;;;;;15.28;83.59;100660.88;4994572;28;45407;-75
2023/03/12 01:07:11;;;;;;;;;1.00;1.00;;;;;15.41;83.18;100674.19;5000553;28;45336;-75
2023/03/12 01:09:36;;;;;;;;;0.00;0.00;;;;;15.40;83.09;100675.03;5001358;28;45404;-74
2023/03/12 01:12:02;;;;;;;;;0.00;0.00;;;;;15.44;82.30;100668.97;5009427;28;45950;-74
2023/03/12 01:14:27;;;;;;;;;0.00;0.00;;;;;15.43;82.73;100664.56;5000292;28;45360;-74
2023/03/12 01:16:53;;;;;;;;;0.00;0.00;;;;;15.49;82.37;100669.88;5005835;28;45400;-74
2023/03/12 01:19:18;;;;;;;;;1.00;1.00;;;;;15.45;82.42;100658.44;5007889;28;45456;-74
2023/03/12 01:21:44;;;;;;;;;4.00;4.00;;;;;15.51;81.98;100670.78;5008652;28;45396;-74
2023/03/12 01:24:09;;;;;;;;;4.00;4.00;;;;;15.44;82.08;100659.31;5007368;28;45504;-74
2023/03/12 01:26:35;;;;;;;;;6.00;5.33;;;;;15.49;82.38;100675.16;5007810;28;45996;-74
2023/03/12 01:29:00;;;;;;;;;0.00;0.00;;;;;15.46;82.19;100673.38;4999110;28;45503;-75
2023/03/12 01:31:26;;;;;;;;;0.00;0.00;;;;;15.47;81.99;100663.72;5007109;28;45824;-74
2023/03/12 01:33:52;;;;;;;;;0.00;0.00;;;;;15.53;82.02;100679.59;5008362;28;45566;-73
2023/03/12 01:36:21;;;;;;;;;2.00;1.00;;;;;15.49;82.11;100673.38;5008169;28;46106;-73
2023/03/12 01:38:48;;;;;;;;;0.00;0.00;;;;;15.52;81.96;100672.56;5006812;28;45458;-74
2023/03/12 01:41:14;;;;;;;;;1.00;1.00;;;;;15.53;81.94;100679.59;5007916;28;45451;-74
2023/03/12 01:43:40;;;;;;;;;0.00;0.00;;;;;15.48;81.87;100673.41;4995227;28;45587;-75
2023/03/12 01:46:05;;;;;;;;;0.33;0.33;;;;;15.49;82.03;100670.75;4997246;28;45470;-74
2023/03/12 01:48:54;;;;;;;;;0.00;0.00;;;;;15.48;82.41;100673.41;4999276;28;45487;-71
2023/03/12 01:51:21;;;;;;;;;0.00;0.00;;;;;15.40;81.96;100653.97;5005259;28;45476;-75
2023/03/12 01:53:49;;;;;;;;;0.00;0.00;;;;;15.48;82.38;100671.63;4988335;28;45470;-77
2023/03/12 01:56:18;;;;;;;;;0.00;0.00;;;;;15.46;82.33;100676.00;5001469;28;45418;-76
2023/03/12 01:58:48;;;;;;;;;1.33;1.33;;;;;15.39;82.49;100660.13;5002614;28;45378;-76
2023/03/12 02:01:17;;;;;;;;;3.00;3.00;;;;;15.43;82.62;100675.09;4999873;28;45469;-75
2023/03/12 02:03:50;;;;;;;;;5.33;4.00;;;;;15.36;82.77;100663.59;5003265;28;45355;-75
2023/03/12 02:06:19;;;;;;;;;0.00;0.00;;;;;15.42;82.77;100678.56;5003989;28;45864;-76
2023/03/12 02:08:47;;;;;;;;;6.00;5.00;;;;;15.35;82.55;100658.31;5004923;28;45517;-72
2023/03/12 02:11:12;;;;;;;;;6.33;6.33;;;;;15.36;82.25;100654.78;5001364;28;45254;-74
2023/03/12 02:13:38;;;;;;;;;8.67;8.67;;;;;15.45;82.58;100671.59;5001848;28;45604;-74
2023/03/12 02:16:05;;;;;;;;;15.00;14.75;;;;;15.42;82.82;100674.22;5001846;28;45472;-74
2023/03/12 02:18:33;;;;;;;;;3.67;3.33;;;;;15.38;83.45;100682.03;5005148;28;45841;-74
2023/03/12 02:21:17;;;;;;;;;2.00;1.67;;;;;15.40;82.57;100673.31;4999620;28;45494;-73
2023/03/12 02:23:49;;;;;;;;;5.67;5.33;;;;;15.41;82.57;100668.91;5001757;28;45504;-74
2023/03/12 02:26:17;;;;;;;;;7.33;6.00;;;;;15.42;82.51;100665.41;5002061;28;46183;-74
2023/03/12 02:28:44;;;;;;;;;5.00;4.00;;;;;15.40;82.48;100665.41;5004557;28;45828;-73
2023/03/12 02:31:18;;;;;;;;;5.00;4.67;;;;;15.37;82.25;100660.09;4998988;28;45415;-74
2023/03/12 02:33:43;;;;;;;;;2.67;2.67;;;;;15.36;82.16;100652.16;4999360;28;45431;-74
2023/03/12 02:36:09;;;;;;;;;3.00;2.00;;;;;15.43;82.21;100669.81;5001318;28;45985;-73
2023/03/12 02:38:34;;;;;;;;;5.67;5.33;;;;;15.42;82.66;100665.41;4999401;28;45380;-74
2023/03/12 02:41:09;;;;;;;;;4.67;4.67;;;;;15.37;82.79;100661.84;5002837;28;45462;-74
2023/03/12 02:43:34;;;;;;;;;7.00;6.67;;;;;15.42;82.56;100668.03;5002049;28;45615;-75
2023/03/12 02:46:00;;;;;;;;;6.00;5.00;;;;;15.43;82.45;100668.06;5002473;28;46068;-71
2023/03/12 02:48:25;;;;;;;;;20.50;19.50;;;;;15.43;82.38;100661.91;5007344;28;45447;-73
2023/03/12 02:50:51;;;;;;;;;8.00;8.00;;;;;15.40;82.42;100661.88;5001506;28;45419;-75
2023/03/12 02:53:17;;;;;;;;;4.67;4.67;;;;;15.45;82.46;100668.09;5004156;28;45431;-74
2023/03/12 02:55:42;;;;;;;;;12.25;10.75;;;;;15.44;82.50;100669.84;5006221;28;45494;-75
2023/03/12 02:58:08;;;;;;;;;8.00;7.00;;;;;15.41;82.53;100664.53;5004569;28;45551;-76
2023/03/12 03:00:33;;;;;;;;;0.00;0.00;;;;;15.40;82.56;100665.41;5000902;28;45517;-75
2023/03/12 03:03:00;;;;;;;;;0.00;0.00;;;;;15.40;82.80;100664.50;5002857;28;45522;-75
2023/03/12 03:05:26;;;;;;;;;0.00;0.00;;;;;15.35;83.11;100674.09;4998571;28;46163;-74
2023/03/12 03:07:51;;;;;;;;;4.00;4.00;;;;;15.32;83.33;100665.31;5003063;28;45573;-74
2023/03/12 03:10:17;;;;;;;;;10.00;9.00;;;;;15.37;83.08;100664.47;5001113;28;45546;-73
2023/03/12 03:12:43;;;;;;;;;21.50;21.50;;;;;15.35;82.78;100661.81;4997999;28;45534;-74
2023/03/12 03:15:09;;;;;;;;;3.00;3.00;;;;;15.39;83.01;100671.53;5001291;28;46039;-74
2023/03/12 03:17:35;;;;;;;;;4.00;4.00;;;;;15.34;83.05;100664.44;5006623;28;45525;-74
2023/03/12 03:20:00;;;;;;;;;5.00;5.00;;;;;15.25;83.03;100663.44;5005344;28;45625;-74
2023/03/12 03:22:27;;;;;;;;;3.00;3.00;;;;;15.32;83.53;100682.84;5013351;28;45661;-74
2023/03/12 03:24:53;;;;;;;;;0.00;0.00;;;;;15.31;82.95;100679.31;5016922;28;46891;-74
2023/03/12 03:27:18;;;;;;;;;0.00;0.00;;;;;15.29;83.00;100667.88;5013060;28;44855;-70
2023/03/12 03:29:45;;;;;;;;;4.33;4.33;;;;;15.28;83.57;100673.16;5009578;28;45490;-74
2023/03/12 03:32:11;;;;;;;;;4.33;4.00;;;;;15.35;83.30;100690.78;5016279;28;45429;-72
2023/03/12 03:34:38;;;;;;;;;1.00;1.00;;;;;15.38;83.01;100685.56;5006802;28;45439;-74
2023/03/12 03:37:03;;;;;;;;;0.00;0.00;;;;;15.36;82.98;100681.13;5000801;28;45510;-73
2023/03/12 03:39:29;;;;;;;;;0.00;0.00;;;;;15.36;83.42;100700.47;5004936;28;45315;-73
2023/03/12 03:41:56;;;;;;;;;0.00;0.00;;;;;15.32;83.60;100709.19;4998865;28;45400;-74
2023/03/12 03:44:22;;;;;;;;;0.00;0.00;;;;;15.30;83.85;100700.38;5006280;28;45368;-75
2023/03/12 03:46:48;;;;;;;;;0.00;0.00;;;;;15.29;84.11;100714.38;5004727;28;45425;-75
2023/03/12 03:49:15;;;;;;;;;0.00;0.00;;;;;15.26;84.32;100715.25;5004793;28;45557;-73
2023/03/12 03:51:41;;;;;;;;;0.00;0.00;;;;;15.23;84.51;100714.31;5004809;28;46233;-75
2023/03/12 03:54:08;;;;;;;;;0.00;0.00;;;;;15.25;84.27;100721.34;4998184;28;46329;-74
2023/03/12 03:56:34;;;;;;;;;0.00;0.00;;;;;15.24;84.22;100724.88;5010928;28;45551;-72
2023/03/12 03:59:00;;;;;;;;;0.00;0.00;;;;;15.16;84.88;100718.63;5004744;28;45312;-74
2023/03/12 04:01:27;;;;;;;;;0.00;0.00;;;;;15.13;84.82;100722.94;5006469;28;45420;-74
2023/03/12 04:03:52;;;;;;;;;0.00;0.00;;;;;15.15;85.07;100732.63;4997245;28;46784;-74
2023/03/12 04:06:19;;;;;;;;;0.00;0.00;;;;;15.20;84.73;100730.03;5002574;28;45498;-74
2023/03/12 04:08:44;;;;;;;;;0.00;0.00;;;;;15.14;85.06;100728.22;4997491;28;45321;-74
2023/03/12 04:11:17;;;;;;;;;0.00;0.00;;;;;15.10;84.67;100721.16;5005414;28;45475;-74
2023/03/12 04:13:43;;;;;;;;;0.00;0.00;;;;;15.17;84.31;100730.88;5000226;28;46189;-74
2023/03/12 04:16:10;;;;;;;;;0.00;0.00;;;;;15.13;85.03;100744.00;5005455;28;45810;-74
2023/03/12 04:18:36;;;;;;;;;0.00;0.00;;;;;14.97;85.75;100732.34;5004535;28;45470;-74
2023/03/12 04:21:02;;;;;;;;;1.00;1.00;;;;;15.03;85.36;100742.97;5007608;28;45620;-74
2023/03/12 04:23:28;;;;;;;;;0.00;0.00;;;;;15.03;85.30;100737.72;5004449;28;46886;-74
2023/03/12 04:25:53;;;;;;;;;0.00;0.00;;;;;14.99;85.79;100741.16;5006823;28;45399;-74
2023/03/12 04:28:19;;;;;;;;;0.00;0.00;;;;;14.90;85.46;100721.75;5003954;28;45459;-71
2023/03/12 04:30:44;;;;;;;;;0.00;0.00;;;;;14.99;85.48;100734.13;5004389;28;45431;-74
2023/03/12 04:33:10;;;;;;;;;0.00;0.00;;;;;14.98;85.29;100731.47;5002316;28;46261;-75
2023/03/12 04:35:35;;;;;;;;;0.00;0.00;;;;;15.01;85.19;100742.06;5007058;28;46114;-74
2023/03/12 04:38:01;;;;;;;;;0.00;0.00;;;;;14.92;85.33;100732.25;4999836;28;45333;-74
2023/03/12 04:40:27;;;;;;;;;0.00;0.00;;;;;14.98;85.23;100737.66;5001191;28;45325;-74
2023/03/12 04:42:52;;;;;;;;;0.00;0.00;;;;;14.94;85.53;100738.47;5005939;28;45946;-74
2023/03/12 04:45:18;;;;;;;;;0.00;0.00;;;;;14.95;84.91;100729.69;5007743;28;45178;-73
2023/03/12 04:47:43;;;;;;;;;0.00;0.00;;;;;14.96;85.47;100746.34;5002339;28;45574;-73
2023/03/12 04:50:11;;;;;;;;;0.00;0.00;;;;;14.87;85.61;100737.47;5004198;28;45689;-72
2023/03/12 04:52:36;;;;;;;;;0.00;0.00;;;;;14.91;85.17;100736.66;5000057;28;45546;-74
2023/03/12 04:55:02;;;;;;;;;0.00;0.00;;;;;15.00;84.69;100737.66;5006444;28;45555;-71
2023/03/12 04:57:28;;;;;;;;;0.00;0.00;;;;;14.96;84.64;100725.31;5000647;28;45699;-73
2023/03/12 04:59:53;;;;;;;;;0.00;0.00;;;;;15.02;84.96;100733.28;5018262;28;45606;-73
2023/03/12 05:02:19;;;;;;;;;0.00;0.00;;;;;14.91;85.30;100734.03;5010971;28;46621;-72
2023/03/12 05:04:44;;;;;;;;;0.00;0.00;;;;;14.89;85.04;100719.97;5001060;28;45479;-72
2023/03/12 05:07:10;;;;;;;;;0.00;0.00;;;;;14.99;84.68;100728.88;5001376;28;45453;-72
2023/03/12 05:09:36;;;;;;;;;0.00;0.00;;;;;14.93;84.76;100720.91;5001820;28;47137;-74
2023/03/12 05:12:01;;;;;;;;;0.00;0.00;;;;;15.00;84.71;100737.66;5012148;28;45464;-72
2023/03/12 05:14:27;;;;;;;;;0.00;0.00;;;;;14.98;84.99;100734.09;5004596;28;45543;-72
2023/03/12 05:16:52;;;;;;;;;0.00;0.00;;;;;14.94;84.97;100727.94;5007712;28;46328;-70
2023/03/12 05:19:18;;;;;;;;;0.00;0.00;;;;;14.98;84.54;100724.50;5003673;28;45234;-71
2023/03/12 05:21:43;;;;;;;;;5.00;5.00;;;;;15.05;84.37;100734.22;4999396;28;46113;-70
2023/03/12 05:24:11;;;;;;;;;13.50;13.50;;;;;15.06;84.33;100730.75;5000544;28;45226;-73
2023/03/12 05:26:37;;;;;;;;;3.00;3.00;;;;;15.09;84.26;100729.91;5002873;28;45559;-73
2023/03/12 05:29:04;;;;;;;;;2.00;2.00;;;;;15.13;84.27;100729.06;5003097;28;45515;-71
2023/03/12 05:31:33;;;;;;;;;2.00;1.00;;;;;15.16;83.94;100725.59;5004638;28;45374;-74
2023/03/12 05:33:59;;;;;;;;;0.00;0.00;;;;;15.18;83.74;100710.72;5011330;28;45462;-73
2023/03/12 05:36:25;;;;;;;;;0.00;0.00;;;;;15.20;83.45;100706.34;5011410;28;45275;-73
2023/03/12 05:38:50;;;;;;;;;0.00;0.00;;;;;15.20;83.33;100714.25;5007484;28;45715;-70
2023/03/12 05:41:25;;;;;;;;;0.00;0.00;;;;;15.19;83.33;100718.63;5006480;28;45399;-71
2023/03/12 05:43:53;;;;;;;;;0.00;0.00;;;;;15.17;83.44;100719.50;5006398;28;45430;-70
2023/03/12 05:46:18;;;;;;;;;0.00;0.00;;;;;15.08;83.58;100707.97;5006721;28;45547;-73
2023/03/12 05:48:44;;;;;;;;;0.00;0.00;;;;;15.14;83.73;100722.06;5007694;28;45479;-71
2023/03/12 05:51:09;;;;;;;;;0.00;0.00;;;;;15.12;83.47;100716.81;5001510;28;45930;-74
2023/03/12 05:53:35;;;;;;;;;0.00;0.00;;;;;15.14;83.58;100722.06;5000544;28;45383;-74
2023/03/12 05:56:03;;;;;;;;;2.00;2.00;;;;;15.17;83.49;100708.97;5010981;28;45439;-74
2023/03/12 05:58:28;;;;;;;;;0.00;0.00;;;;;15.14;83.17;100699.28;5017292;28;45708;-74
2023/03/12 06:00:54;;;;;;;;;0.00;0.00;;;;;15.11;83.53;100701.88;5003323;28;46087;-73
2023/03/12 06:03:19;;;;;;;;;0.00;0.00;;;;;15.16;83.54;100717.69;5001303;28;45446;-74
2023/03/12 06:05:46;;;;;;;;;0.00;0.00;;;;;15.14;83.56;100719.44;5005261;28;45398;-72
2023/03/12 06:08:12;;;;;;;;;0.00;0.00;;;;;15.13;83.71;100717.69;5005379;28;45240;-74
2023/03/12 06:10:38;;;;;;;;;0.00;0.00;;;;;15.17;83.63;100716.84;5000615;28;45521;-76
2023/03/12 06:13:04;;;;;;;;;0.00;0.00;;;;;15.16;83.65;100710.72;5013604;28;45581;-75
2023/03/12 06:15:30;;;;;;;;;0.00;0.00;;;;;15.06;83.54;100700.91;5000022;28;45497;-76
2023/03/12 06:17:55;;;;;;;;;0.00;0.00;;;;;15.04;83.96;100697.38;4999525;28;45509;-76
2023/03/12 06:20:21;;;;;;;;;0.00;0.00;;;;;15.11;83.83;100704.50;5005785;28;45993;-74
2023/03/12 06:22:47;;;;;;;;;0.00;0.00;;;;;15.13;83.72;100708.03;4999938;28;45486;-76
2023/03/12 06:25:12;;;;;;;;;0.00;0.00;;;;;15.10;83.69;100708.88;5001234;28;45396;-77
2023/03/12 06:27:38;;;;;;;;;0.00;0.00;;;;;15.13;83.74;100717.69;5012385;28;45347;-77
2023/03/12 06:30:04;;;;;;;;;0.00;0.00;;;;;15.14;83.59;100719.44;5003681;28;46174;-73
2023/03/12 06:32:30;;;;;;;;;0.00;0.00;;;;;15.13;83.41;100721.19;4986739;28;45445;-74
2023/03/12 06:34:55;;;;;;;;;0.00;0.00;;;;;15.15;83.85;100723.84;5009976;28;45398;-75
2023/03/12 06:37:21;;;;;;;;;0.00;0.00;;;;;15.10;83.78;100723.78;5007532;28;45367;-73
2023/03/12 06:39:46;;;;;;;;;0.00;0.00;;;;;15.11;83.83;100720.28;5000097;28;45506;-75
2023/03/12 06:42:13;;;;;;;;;0.00;0.00;;;;;15.08;83.76;100720.22;5006444;28;45424;-75
2023/03/12 06:44:39;;;;;;;;;0.00;0.00;;;;;15.16;83.64;100736.13;5000560;28;45526;-74
2023/03/12 06:47:04;;;;;;;;;2.00;2.00;;;;;15.19;83.65;100731.78;5010860;28;45419;-76
2023/03/12 06:49:32;;;;;;;;;0.00;0.00;;;;;15.16;83.53;100729.13;5003154;28;45419;-77
2023/03/12 06:51:57;;;;;;;;;0.00;0.00;;;;;15.21;83.32;100729.19;5005124;28;45380;-76
2023/03/12 06:54:23;;;;;;;;;0.00;0.00;;;;;15.20;83.24;100730.03;5000339;28;46259;-75
2023/03/12 06:56:49;;;;;;;;;0.00;0.00;;;;;15.26;83.20;100736.28;4999930;28;45534;-77
2023/03/12 06:59:14;;;;;;;;;0.00;0.00;;;;;15.18;83.22;100716.88;5005290;28;45476;-76
2023/03/12 07:01:40;;;;;;;;;0.00;0.00;;;;;15.28;83.14;100734.56;4998813;28;45487;-77
2023/03/12 07:04:05;;;;;;;;;0.00;0.00;;;;;15.29;82.78;100722.28;5002951;28;45523;-74
2023/03/12 07:06:31;;;;;;;;;0.00;0.00;;;;;15.32;83.02;100728.47;5000444;28;45412;-75
2023/03/12 07:08:56;;;;;;;;;0.00;0.00;;;;;15.34;82.80;100720.59;4996822;28;45705;-75
2023/03/12 07:11:22;;;;;;;;;0.00;0.00;;;;;15.40;82.63;100732.94;5004315;28;45516;-72
2023/03/12 07:13:47;;;;;;;;;0.00;0.00;;;;;15.42;82.89;100728.56;5000015;28;45479;-73
2023/03/12 07:16:13;;;;;;;;;0.00;0.00;;;;;15.43;82.51;100717.19;4999975;28;45528;-75
2023/03/12 07:18:39;;;;;;;;;0.00;0.00;;;;;15.34;82.50;100701.28;5006092;28;45485;-71
2023/03/12 07:21:05;;;;;;;;;0.00;0.00;;;;;15.48;82.52;100718.16;4997743;28;45567;-75
2023/03/12 07:23:30;;;;;;;;;0.00;0.00;;;;;15.44;82.94;100714.59;5003691;28;45371;-75
2023/03/12 07:25:56;;;;;;;;;0.00;0.00;;;;;15.42;83.27;100732.13;5006892;28;45350;-76
2023/03/12 07:28:21;;;;;;;;;0.00;0.00;;;;;15.44;83.11;100724.25;5005099;28;45778;-73
2023/03/12 07:30:49;;;;;;;;;1.00;0.00;;;;;15.40;82.67;100725.03;5007592;28;45271;-76
2023/03/12 07:33:17;;;;;;;;;5.67;4.67;;;;;15.41;83.36;100734.72;5005152;28;45469;-75
2023/03/12 07:35:45;;;;;;;;;9.00;8.33;;;;;15.42;83.59;100737.38;4999760;28;45454;-75
2023/03/12 07:38:11;;;;;;;;;6.00;5.00;;;;;15.47;83.20;100734.81;4994272;28;45735;-75
2023/03/12 07:40:36;;;;;;;;;6.67;6.00;;;;;15.53;82.86;100737.50;5001755;28;45528;-72
2023/03/12 07:43:05;;;;;;;;;2.00;1.00;;;;;15.58;82.66;100748.09;4994678;28;45467;-75
2023/03/12 07:45:31;;;;;;;;;0.00;0.00;;;;;15.59;82.51;100744.59;4999630;28;45754;-76
2023/03/12 07:47:56;;;;;;;;;0.00;0.00;;;;;15.58;82.74;100742.81;4997996;28;46095;-76
2023/03/12 07:50:22;;;;;;;;;0.00;0.00;;;;;15.58;82.20;100738.47;4996509;28;45467;-76
2023/03/12 07:52:47;;;;;;;;;0.00;0.00;;;;;15.56;82.54;100739.28;5012232;28;45408;-76
2023/03/12 07:55:13;;;;;;;;;0.00;0.00;;;;;15.67;82.50;100746.47;4996237;28;45304;-76
2023/03/12 07:57:39;;;;;;;;;0.00;0.00;;;;;15.76;82.28;100734.31;4994964;28;46365;-76
2023/03/12 08:00:06;;;;;;;;;0.00;0.00;;;;;15.83;82.03;100744.06;4996666;28;45611;-77
2023/03/12 08:02:32;;;;;;;;;0.00;0.00;;;;;15.87;81.94;100730.03;4997144;28;45465;-77
2023/03/12 08:04:58;;;;;;;;;1.00;1.00;;;;;15.99;81.32;100731.94;4996813;28;45580;-75
2023/03/12 08:07:25;;;;;;;;;3.00;3.00;;;;;16.06;81.39;100731.16;4992601;28;46842;-76
2023/03/12 08:09:50;;;;;;;;;6.33;5.00;;;;;16.17;81.33;100731.25;4996462;28;45430;-76
2023/03/12 08:12:16;;;;;;;;;8.00;7.00;;;;;16.20;81.25;100737.44;4995259;28;45472;-75
2023/03/12 08:14:41;;;;;;;;;11.00;11.00;;;;;16.21;80.87;100720.72;4997310;28;45470;-75
2023/03/12 08:17:07;;;;;;;;;3.00;3.00;;;;;16.39;81.16;100732.31;4996712;28;45507;-76
2023/03/12 08:19:33;;;;;;;;;4.00;4.00;;;;;16.53;80.54;100743.00;4994618;28;45896;-76
2023/03/12 08:21:58;;;;;;;;;1.00;0.00;;;;;16.63;80.17;100744.84;4997020;28;45598;-76
2023/03/12 08:24:24;;;;;;;;;0.00;0.00;;;;;16.70;79.94;100741.41;4997234;28;45367;-75
2023/03/12 08:26:49;;;;;;;;;6.00;5.67;;;;;16.81;79.76;100737.13;4996499;28;45639;-78
2023/03/12 08:29:15;;;;;;;;;1.00;1.00;;;;;16.94;79.42;100750.41;4995825;28;45364;-76
2023/03/12 08:31:41;;;;;;;;;0.00;0.00;;;;;16.93;79.04;100724.88;4996362;28;45581;-77
2023/03/12 08:34:07;;;;;;;;;0.00;0.00;;;;;17.15;78.62;100747.00;4996941;28;45486;-78
2023/03/12 08:36:33;;;;;;;;;2.00;2.00;;;;;17.13;78.30;100725.00;4996388;28;45317;-76
2023/03/12 08:38:58;;;;;;;;;6.00;5.67;;;;;17.28;77.76;100735.66;4995741;28;45434;-77
2023/03/12 08:41:24;;;;;;;;;6.00;6.00;;;;;17.32;77.84;100742.72;4997760;28;45600;-76
2023/03/12 08:43:50;;;;;;;;;7.33;6.33;;;;;17.30;77.63;100729.50;4996987;28;45715;-82
2023/03/12 08:46:15;;;;;;;;;5.00;5.00;;;;;17.51;77.64;100727.88;4996967;28;45421;-78
2023/03/12 08:48:41;;;;;;;;;5.00;5.00;;;;;17.81;76.93;100718.28;4996438;28;45598;-79
2023/03/12 08:51:07;;;;;;;;;0.33;0.33;;;;;18.47;75.67;100714.00;4994449;28;45586;-78
2023/03/12 08:53:35;;;;;;;;;0.67;0.67;;;;;19.23;72.72;100706.00;4994567;28;45431;-71
2023/03/12 08:56:02;;;;;;;;;1.00;0.67;;;;;19.55;70.57;100687.31;4995813;28;45635;-73
2023/03/12 08:58:28;;;;;;;;;0.00;0.00;;;;;20.08;70.01;100693.25;4996498;28;45502;-78
2023/03/12 09:00:54;;;;;;;;;0.00;0.00;;;;;22.08;65.96;100685.78;4994134;28;45337;-86
2023/03/12 09:03:20;;;;;;;;;0.33;0.00;;;;;24.11;58.19;100684.59;4998027;28;45454;-85
2023/03/12 09:05:47;;;;;;;;;2.00;2.00;;;;;25.52;52.71;100682.69;4996654;28;46468;-84
2023/03/12 09:08:13;;;;;;;;;3.00;2.33;;;;;26.63;49.77;100679.19;4998926;28;45445;-75
2023/03/12 09:10:40;;;;;;;;;1.00;1.00;;;;;27.43;47.51;100688.88;5000921;28;45304;-71
2023/03/12 09:13:06;;;;;;;;;1.00;1.00;;;;;28.00;46.94;100681.34;5008028;28;45307;-80
2023/03/12 09:15:32;;;;;;;;;1.00;1.00;;;;;28.70;45.77;100689.16;5004368;28;45357;-80
2023/03/12 09:17:57;;;;;;;;;5.33;4.33;;;;;29.27;45.91;100680.44;5000222;28;45521;-80
2023/03/12 09:20:24;;;;;;;;;5.33;5.33;;;;;29.97;45.54;100680.75;5002350;28;45586;-78
2023/03/12 09:22:50;;;;;;;;;5.00;3.33;;;;;30.38;41.47;100686.81;5006524;28;45443;-79
2023/03/12 09:25:16;;;;;;;;;14.67;14.67;;;;;30.66;40.46;100680.00;5002279;28;46101;-79
2023/03/12 09:27:45;;;;;;;;;8.00;8.00;;;;;31.11;39.81;100679.41;5002775;28;45597;-80
2023/03/12 09:30:14;;;;;;;;;6.00;6.00;;;;;30.92;40.48;100678.69;5009067;28;45392;-76
2023/03/12 09:32:40;;;;;;;;;4.00;4.00;;;;;30.67;39.25;100673.66;4994538;28;45493;-78
2023/03/12 09:35:07;;;;;;;;;4.00;4.00;;;;;30.92;39.86;100684.94;4998656;28;46185;-79
2023/03/12 09:37:33;;;;;;;;;1.00;1.00;;;;;30.59;41.20;100689.38;4999193;28;45540;-81
2023/03/12 09:39:59;;;;;;;;;0.67;0.67;;;;;29.85;40.53;100704.63;4998688;28;45464;-79
2023/03/12 09:42:35;;;;;;;;;2.00;1.67;;;;;28.84;42.56;100702.00;4998973;28;45360;-79
2023/03/12 09:45:04;;;;;;;;;3.33;3.00;;;;;27.74;44.21;100720.78;4998100;28;45482;-69
2023/03/12 09:47:42;;;;;;;;;5.67;4.67;;;;;26.82;45.98;100710.72;4998936;28;45439;-79
2023/03/12 09:50:42;;;;;;;;;4.00;4.00;;;;;26.12;48.16;100720.13;4996336;28;45443;-75
2023/03/12 09:53:34;;;;;;;;;2.00;2.00;;;;;25.56;49.96;100721.78;4957067;28;45483;-80
2023/03/12 09:56:09;;;;;;;;;1.00;0.33;;;;;25.17;51.07;100730.00;4998117;28;45573;-80
2023/03/12 09:58:37;;;;;;;;;0.00;0.00;;;;;24.58;51.84;100725.31;4998450;28;45423;-76
2023/03/12 10:01:32;;;;;;;;;2.00;2.00;;;;;24.30;53.40;100727.75;4996111;28;45368;-74
2023/03/12 10:04:15;;;;;;;;;1.00;1.00;;;;;24.05;53.75;100727.44;5023393;28;45559;-74
2023/03/12 10:07:10;;;;;;;;;3.33;3.33;;;;;23.89;54.11;100729.56;4998580;28;46027;-73
2023/03/12 10:09:45;;;;;;;;;0.00;0.00;;;;;23.67;54.52;100728.28;4997965;28;45301;-74
2023/03/12 10:12:26;;;;;;;;;5.00;4.00;;;;;23.51;54.70;100728.59;4995123;28;45563;-75
2023/03/12 10:15:02;;;;;;;;;1.00;1.00;;;;;23.32;55.51;100727.22;5005480;28;45467;-75
2023/03/12 10:17:35;;;;;;;;;0.00;0.00;;;;;23.18;56.37;100731.03;5006045;28;45411;-75
2023/03/12 10:20:06;;;;;;;;;0.00;0.00;;;;;23.10;56.70;100738.28;4994694;28;45693;-75
2023/03/12 10:22:41;;;;;;;;;0.33;0.00;;;;;23.09;56.55;100728.53;5003873;28;45616;-75
2023/03/12 10:25:09;;;;;;;;;1.00;1.00;;;;;23.18;55.93;100727.50;5006102;28;45664;-74
2023/03/12 10:27:41;;;;;;;;;1.00;0.00;;;;;23.16;57.20;100722.19;5007299;28;45486;-74
2023/03/12 10:30:35;;;;;;;;;0.00;0.00;;;;;23.42;56.29;100711.00;5007348;28;45451;-75
2023/03/12 10:33:09;;;;;;;;;0.00;0.00;;;;;23.88;55.50;100702.97;4989224;28;45793;-74
2023/03/12 10:35:38;;;;;;;;;1.00;1.00;;;;;24.37;54.41;100701.78;5006376;28;45411;-75
2023/03/12 10:38:09;;;;;;;;;1.00;0.67;;;;;24.90;54.03;100699.56;5004434;28;46418;-74
2023/03/12 10:40:37;;;;;;;;;0.00;0.00;;;;;25.49;52.05;100687.28;5005903;28;45573;-72
2023/03/12 10:43:05;;;;;;;;;0.67;0.67;;;;;25.92;50.49;100676.13;4998655;28;45485;-76
2023/03/12 10:45:45;;;;;;;;;0.00;0.00;;;;;26.10;49.57;100672.03;5005990;28;45536;-75
2023/03/12 10:48:19;;;;;;;;;2.33;1.00;;;;;26.44;50.12;100668.22;4988001;28;45956;-78
2023/03/12 10:51:00;;;;;;;;;1.00;0.00;;;;;26.63;47.51;100663.13;5001577;28;45385;-77
2023/03/12 10:53:30;;;;;;;;;0.67;0.67;;;;;26.48;49.01;100658.25;5001769;28;45763;-78
2023/03/12 10:56:08;;;;;;;;;0.00;0.00;;;;;26.44;47.39;100670.00;5000340;28;45375;-75
2023/03/12 10:58:45;;;;;;;;;0.33;0.33;;;;;26.57;47.40;100655.28;4995958;28;47480;-77
2023/03/12 11:01:18;;;;;;;;;0.00;0.00;;;;;26.76;47.34;100669.81;5004887;28;45454;-78
2023/03/12 11:03:44;;;;;;;;;1.00;0.33;;;;;26.82;47.01;100659.78;4997052;28;45490;-78
2023/03/12 11:06:29;;;;;;;;;0.00;0.00;;;;;27.08;46.40;100654.38;4997201;28;45445;-77
2023/03/12 11:09:17;;;;;;;;;2.67;2.67;;;;;26.69;46.76;100620.03;4996635;28;45401;-76
2023/03/12 11:11:46;;;;;;;;;2.00;2.00;;;;;26.97;46.52;100638.66;4996671;28;45490;-78
2023/03/12 11:14:17;;;;;;;;;1.00;1.00;;;;;26.84;46.42;100633.81;4997243;28;45500;-75
2023/03/12 11:16:42;;;;;;;;;0.33;0.33;;;;;26.52;47.51;100634.00;4997129;28;45388;-76
2023/03/12 11:19:12;;;;;;;;;0.67;0.67;;;;;26.65;47.77;100629.13;4996621;28;45910;-78
2023/03/12 11:21:39;;;;;;;;;2.33;2.33;;;;;26.82;46.87;100615.13;4994239;28;45708;-80
2023/03/12 11:24:13;;;;;;;;;0.00;0.00;;;;;26.91;46.96;100613.91;4996823;28;45361;-80
2023/03/12 11:27:00;;;;;;;;;0.00;0.00;;;;;26.83;45.67;100616.00;4997783;28;45510;-75